sensor_id;sensor_type;location;lat;lon;timestamp;P1;durP1;ratioP1;P2;durP2;ratioP2
70157;SDS011;57524;48.312;7.938;2022-10-16T00:00:20;6.18;;;1.52;;
70157;SDS011;57524;48.312;7.938;2022-10-16T00:02:46;5.07;;;1.55;;
70157;SDS011;57524;48.312;7.938;2022-10-16T00:05:13;8.32;;;1.90;;
70157;SDS011;57524;48.312;7.938;2022-10-16T00:07:39;8.57;;;1.70;;
70157;SDS011;57524;48.312;7.938;2022-10-16T00:10:06;5.38;;;1.60;;
70157;SDS011;57524;48.312;7.938;2022-10-16T00:12:33;8.18;;;1.90;;
70157;SDS011;57524;48.312;7.938;2022-10-16T00:15:01;8.13;;;1.67;;
70157;SDS011;57524;48.312;7.938;2022-10-16T00:17:29;4.07;;;1.50;;
70157;SDS011;57524;48.312;7.938;2022-10-16T00:19:55;5.45;;;1.48;;
70157;SDS011;57524;48.312;7.938;2022-10-16T00:22:22;7.25;;;1.60;;
70157;SDS011;57524;48.312;7.938;2022-10-16T00:24:49;4.47;;;1.50;;
70157;SDS011;57524;48.312;7.938;2022-10-16T00:27:16;7.03;;;1.60;;
70157;SDS011;57524;48.312;7.938;2022-10-16T00:29:43;5.10;;;1.35;;
70157;SDS011;57524;48.312;7.938;2022-10-16T00:32:11;6.22;;;1.48;;
70157;SDS011;57524;48.312;7.938;2022-10-16T00:34:37;5.93;;;1.42;;
70157;SDS011;57524;48.312;7.938;2022-10-16T00:37:04;6.35;;;1.60;;
70157;SDS011;57524;48.312;7.938;2022-10-16T00:39:31;5.55;;;1.60;;
70157;SDS011;57524;48.312;7.938;2022-10-16T00:41:57;3.97;;;1.40;;
70157;SDS011;57524;48.312;7.938;2022-10-16T00:44:43;7.85;;;1.50;;
70157;SDS011;57524;48.312;7.938;2022-10-16T00:47:17;5.55;;;1.50;;
70157;SDS011;57524;48.312;7.938;2022-10-16T00:49:47;7.20;;;1.50;;
70157;SDS011;57524;48.312;7.938;2022-10-16T00:52:16;5.85;;;1.45;;
70157;SDS011;57524;48.312;7.938;2022-10-16T00:54:43;7.40;;;1.90;;
70157;SDS011;57524;48.312;7.938;2022-10-16T00:57:12;5.27;;;1.50;;
70157;SDS011;57524;48.312;7.938;2022-10-16T00:59:39;5.80;;;1.63;;
70157;SDS011;57524;48.312;7.938;2022-10-16T01:02:08;9.00;;;2.15;;
70157;SDS011;57524;48.312;7.938;2022-10-16T01:04:39;4.93;;;1.80;;
70157;SDS011;57524;48.312;7.938;2022-10-16T01:07:10;7.45;;;1.80;;
70157;SDS011;57524;48.312;7.938;2022-10-16T01:09:44;8.10;;;1.80;;
70157;SDS011;57524;48.312;7.938;2022-10-16T01:12:18;4.35;;;1.40;;
70157;SDS011;57524;48.312;7.938;2022-10-16T01:14:53;5.82;;;1.40;;
70157;SDS011;57524;48.312;7.938;2022-10-16T01:17:24;5.13;;;1.77;;
70157;SDS011;57524;48.312;7.938;2022-10-16T01:20:03;6.28;;;1.80;;
70157;SDS011;57524;48.312;7.938;2022-10-16T01:22:41;5.82;;;2.00;;
70157;SDS011;57524;48.312;7.938;2022-10-16T01:25:16;5.35;;;1.95;;
70157;SDS011;57524;48.312;7.938;2022-10-16T01:27:51;7.93;;;2.45;;
70157;SDS011;57524;48.312;7.938;2022-10-16T01:30:20;4.07;;;1.75;;
70157;SDS011;57524;48.312;7.938;2022-10-16T01:32:49;4.82;;;1.80;;
70157;SDS011;57524;48.312;7.938;2022-10-16T01:35:21;7.20;;;1.87;;
70157;SDS011;57524;48.312;7.938;2022-10-16T01:37:53;4.45;;;1.50;;
70157;SDS011;57524;48.312;7.938;2022-10-16T01:40:26;6.00;;;1.75;;
70157;SDS011;57524;48.312;7.938;2022-10-16T01:42:55;6.05;;;1.50;;
70157;SDS011;57524;48.312;7.938;2022-10-16T01:45:28;5.25;;;1.42;;
70157;SDS011;57524;48.312;7.938;2022-10-16T01:47:57;6.07;;;1.43;;
70157;SDS011;57524;48.312;7.938;2022-10-16T01:50:29;5.50;;;1.20;;
70157;SDS011;57524;48.312;7.938;2022-10-16T01:52:57;7.00;;;1.48;;
70157;SDS011;57524;48.312;7.938;2022-10-16T01:55:25;8.07;;;1.40;;
70157;SDS011;57524;48.312;7.938;2022-10-16T01:57:58;8.10;;;1.70;;
70157;SDS011;57524;48.312;7.938;2022-10-16T02:00:27;6.37;;;1.20;;
70157;SDS011;57524;48.312;7.938;2022-10-16T02:02:55;7.45;;;1.58;;
70157;SDS011;57524;48.312;7.938;2022-10-16T02:05:26;6.82;;;1.60;;
70157;SDS011;57524;48.312;7.938;2022-10-16T02:07:56;3.95;;;1.40;;
70157;SDS011;57524;48.312;7.938;2022-10-16T02:10:23;5.38;;;1.60;;
70157;SDS011;57524;48.312;7.938;2022-10-16T02:12:53;6.23;;;1.60;;
70157;SDS011;57524;48.312;7.938;2022-10-16T02:15:25;6.28;;;1.50;;
70157;SDS011;57524;48.312;7.938;2022-10-16T02:17:51;4.68;;;1.30;;
70157;SDS011;57524;48.312;7.938;2022-10-16T02:20:18;4.85;;;1.25;;
70157;SDS011;57524;48.312;7.938;2022-10-16T02:22:52;4.35;;;1.35;;
70157;SDS011;57524;48.312;7.938;2022-10-16T02:25:23;6.10;;;1.30;;
70157;SDS011;57524;48.312;7.938;2022-10-16T02:27:53;4.47;;;1.38;;
70157;SDS011;57524;48.312;7.938;2022-10-16T02:30:25;6.43;;;1.50;;
70157;SDS011;57524;48.312;7.938;2022-10-16T02:32:58;4.88;;;1.70;;
70157;SDS011;57524;48.312;7.938;2022-10-16T02:35:27;5.88;;;1.42;;
70157;SDS011;57524;48.312;7.938;2022-10-16T02:37:54;5.13;;;1.30;;
70157;SDS011;57524;48.312;7.938;2022-10-16T02:40:23;4.97;;;1.40;;
70157;SDS011;57524;48.312;7.938;2022-10-16T02:42:51;6.63;;;1.50;;
70157;SDS011;57524;48.312;7.938;2022-10-16T02:45:18;6.32;;;1.70;;
70157;SDS011;57524;48.312;7.938;2022-10-16T02:47:47;9.00;;;1.40;;
70157;SDS011;57524;48.312;7.938;2022-10-16T02:50:14;7.70;;;1.50;;
70157;SDS011;57524;48.312;7.938;2022-10-16T02:52:41;5.25;;;1.38;;
70157;SDS011;57524;48.312;7.938;2022-10-16T02:55:08;6.82;;;1.40;;
70157;SDS011;57524;48.312;7.938;2022-10-16T02:57:34;5.97;;;1.50;;
70157;SDS011;57524;48.312;7.938;2022-10-16T03:00:02;6.22;;;1.60;;
70157;SDS011;57524;48.312;7.938;2022-10-16T03:02:29;4.68;;;1.67;;
70157;SDS011;57524;48.312;7.938;2022-10-16T03:04:57;6.75;;;1.45;;
70157;SDS011;57524;48.312;7.938;2022-10-16T03:07:24;6.18;;;1.70;;
70157;SDS011;57524;48.312;7.938;2022-10-16T03:09:51;5.82;;;1.80;;
70157;SDS011;57524;48.312;7.938;2022-10-16T03:12:17;5.97;;;1.77;;
70157;SDS011;57524;48.312;7.938;2022-10-16T03:14:44;4.97;;;1.45;;
70157;SDS011;57524;48.312;7.938;2022-10-16T03:17:10;5.47;;;1.80;;
70157;SDS011;57524;48.312;7.938;2022-10-16T03:19:37;4.80;;;1.55;;
70157;SDS011;57524;48.312;7.938;2022-10-16T03:22:05;5.10;;;1.40;;
70157;SDS011;57524;48.312;7.938;2022-10-16T03:24:32;7.22;;;1.50;;
70157;SDS011;57524;48.312;7.938;2022-10-16T03:26:59;3.97;;;1.33;;
70157;SDS011;57524;48.312;7.938;2022-10-16T03:29:25;5.07;;;1.42;;
70157;SDS011;57524;48.312;7.938;2022-10-16T03:31:54;4.68;;;1.20;;
70157;SDS011;57524;48.312;7.938;2022-10-16T03:34:20;6.95;;;1.17;;
70157;SDS011;57524;48.312;7.938;2022-10-16T03:36:47;4.57;;;1.33;;
70157;SDS011;57524;48.312;7.938;2022-10-16T03:39:15;7.80;;;1.60;;
70157;SDS011;57524;48.312;7.938;2022-10-16T03:41:42;6.38;;;1.30;;
70157;SDS011;57524;48.312;7.938;2022-10-16T03:44:08;4.97;;;1.60;;
70157;SDS011;57524;48.312;7.938;2022-10-16T03:46:35;4.07;;;1.40;;
70157;SDS011;57524;48.312;7.938;2022-10-16T03:49:02;7.38;;;1.55;;
70157;SDS011;57524;48.312;7.938;2022-10-16T03:51:28;5.15;;;1.48;;
70157;SDS011;57524;48.312;7.938;2022-10-16T03:53:55;5.03;;;1.60;;
70157;SDS011;57524;48.312;7.938;2022-10-16T03:56:23;4.97;;;1.30;;
70157;SDS011;57524;48.312;7.938;2022-10-16T03:58:49;5.97;;;1.40;;
70157;SDS011;57524;48.312;7.938;2022-10-16T04:01:16;4.60;;;1.30;;
70157;SDS011;57524;48.312;7.938;2022-10-16T04:03:42;7.80;;;1.43;;
70157;SDS011;57524;48.312;7.938;2022-10-16T04:06:09;6.90;;;1.45;;
70157;SDS011;57524;48.312;7.938;2022-10-16T04:08:35;6.75;;;1.25;;
70157;SDS011;57524;48.312;7.938;2022-10-16T04:11:04;4.57;;;1.30;;
70157;SDS011;57524;48.312;7.938;2022-10-16T04:13:32;7.90;;;1.33;;
70157;SDS011;57524;48.312;7.938;2022-10-16T04:15:59;5.43;;;1.30;;
70157;SDS011;57524;48.312;7.938;2022-10-16T04:18:25;4.82;;;1.38;;
70157;SDS011;57524;48.312;7.938;2022-10-16T04:20:53;7.47;;;1.75;;
70157;SDS011;57524;48.312;7.938;2022-10-16T04:23:19;4.28;;;1.45;;
70157;SDS011;57524;48.312;7.938;2022-10-16T04:25:48;5.75;;;1.30;;
70157;SDS011;57524;48.312;7.938;2022-10-16T04:28:14;6.87;;;1.40;;
70157;SDS011;57524;48.312;7.938;2022-10-16T04:30:42;4.95;;;1.30;;
70157;SDS011;57524;48.312;7.938;2022-10-16T04:33:09;5.05;;;1.30;;
70157;SDS011;57524;48.312;7.938;2022-10-16T04:35:35;4.68;;;1.27;;
70157;SDS011;57524;48.312;7.938;2022-10-16T04:38:02;6.05;;;1.30;;
70157;SDS011;57524;48.312;7.938;2022-10-16T04:40:29;3.97;;;1.20;;
70157;SDS011;57524;48.312;7.938;2022-10-16T04:42:57;6.82;;;1.35;;
70157;SDS011;57524;48.312;7.938;2022-10-16T04:45:24;6.32;;;1.67;;
70157;SDS011;57524;48.312;7.938;2022-10-16T04:47:52;6.22;;;1.90;;
70157;SDS011;57524;48.312;7.938;2022-10-16T04:50:19;4.45;;;1.88;;
70157;SDS011;57524;48.312;7.938;2022-10-16T04:53:00;8.90;;;2.10;;
70157;SDS011;57524;48.312;7.938;2022-10-16T04:55:26;7.72;;;2.30;;
70157;SDS011;57524;48.312;7.938;2022-10-16T04:57:53;6.85;;;2.03;;
70157;SDS011;57524;48.312;7.938;2022-10-16T05:00:19;5.65;;;1.33;;
70157;SDS011;57524;48.312;7.938;2022-10-16T05:02:47;6.15;;;1.60;;
70157;SDS011;57524;48.312;7.938;2022-10-16T05:05:16;5.70;;;1.60;;
70157;SDS011;57524;48.312;7.938;2022-10-16T05:07:44;10.88;;;1.70;;
70157;SDS011;57524;48.312;7.938;2022-10-16T05:10:11;5.57;;;1.30;;
70157;SDS011;57524;48.312;7.938;2022-10-16T05:12:37;4.93;;;1.48;;
70157;SDS011;57524;48.312;7.938;2022-10-16T05:15:04;5.10;;;1.33;;
70157;SDS011;57524;48.312;7.938;2022-10-16T05:17:31;6.40;;;1.30;;
70157;SDS011;57524;48.312;7.938;2022-10-16T05:19:58;5.28;;;1.60;;
70157;SDS011;57524;48.312;7.938;2022-10-16T05:22:26;4.88;;;1.38;;
70157;SDS011;57524;48.312;7.938;2022-10-16T05:24:52;9.07;;;1.58;;
70157;SDS011;57524;48.312;7.938;2022-10-16T05:27:19;7.22;;;1.67;;
70157;SDS011;57524;48.312;7.938;2022-10-16T05:29:46;5.67;;;1.23;;
70157;SDS011;57524;48.312;7.938;2022-10-16T05:32:13;4.60;;;1.42;;
70157;SDS011;57524;48.312;7.938;2022-10-16T05:34:41;6.57;;;1.38;;
70157;SDS011;57524;48.312;7.938;2022-10-16T05:37:07;5.30;;;1.70;;
70157;SDS011;57524;48.312;7.938;2022-10-16T05:39:36;5.95;;;1.70;;
70157;SDS011;57524;48.312;7.938;2022-10-16T05:42:02;6.40;;;1.80;;
70157;SDS011;57524;48.312;7.938;2022-10-16T05:44:29;5.95;;;1.77;;
70157;SDS011;57524;48.312;7.938;2022-10-16T05:46:56;4.30;;;1.67;;
70157;SDS011;57524;48.312;7.938;2022-10-16T05:49:22;7.55;;;1.70;;
70157;SDS011;57524;48.312;7.938;2022-10-16T05:51:49;4.88;;;1.80;;
70157;SDS011;57524;48.312;7.938;2022-10-16T05:54:16;6.43;;;1.90;;
70157;SDS011;57524;48.312;7.938;2022-10-16T05:56:44;6.80;;;1.95;;
70157;SDS011;57524;48.312;7.938;2022-10-16T05:59:10;7.63;;;2.13;;
70157;SDS011;57524;48.312;7.938;2022-10-16T06:01:37;7.65;;;2.45;;
70157;SDS011;57524;48.312;7.938;2022-10-16T06:04:03;7.13;;;2.42;;
70157;SDS011;57524;48.312;7.938;2022-10-16T06:06:30;8.47;;;2.50;;
70157;SDS011;57524;48.312;7.938;2022-10-16T06:08:57;7.43;;;2.50;;
70157;SDS011;57524;48.312;7.938;2022-10-16T06:11:25;7.13;;;2.50;;
70157;SDS011;57524;48.312;7.938;2022-10-16T06:13:55;5.93;;;2.55;;
70157;SDS011;57524;48.312;7.938;2022-10-16T06:16:24;8.80;;;2.38;;
70157;SDS011;57524;48.312;7.938;2022-10-16T06:18:51;5.87;;;2.00;;
70157;SDS011;57524;48.312;7.938;2022-10-16T06:21:19;6.93;;;1.95;;
70157;SDS011;57524;48.312;7.938;2022-10-16T06:23:49;6.15;;;1.90;;
70157;SDS011;57524;48.312;7.938;2022-10-16T06:26:17;7.43;;;1.70;;
70157;SDS011;57524;48.312;7.938;2022-10-16T06:28:45;9.73;;;1.80;;
70157;SDS011;57524;48.312;7.938;2022-10-16T06:31:13;4.83;;;1.50;;
70157;SDS011;57524;48.312;7.938;2022-10-16T06:33:41;6.38;;;1.60;;
70157;SDS011;57524;48.312;7.938;2022-10-16T06:36:08;5.70;;;2.00;;
70157;SDS011;57524;48.312;7.938;2022-10-16T06:38:36;7.47;;;2.25;;
70157;SDS011;57524;48.312;7.938;2022-10-16T06:41:04;6.43;;;2.28;;
70157;SDS011;57524;48.312;7.938;2022-10-16T06:43:32;8.38;;;2.78;;
70157;SDS011;57524;48.312;7.938;2022-10-16T06:46:00;10.98;;;3.00;;
70157;SDS011;57524;48.312;7.938;2022-10-16T06:48:29;7.75;;;2.75;;
70157;SDS011;57524;48.312;7.938;2022-10-16T06:50:57;9.77;;;2.70;;
70157;SDS011;57524;48.312;7.938;2022-10-16T06:53:24;9.55;;;2.40;;
70157;SDS011;57524;48.312;7.938;2022-10-16T06:55:52;8.13;;;2.30;;
70157;SDS011;57524;48.312;7.938;2022-10-16T06:58:19;7.38;;;2.30;;
70157;SDS011;57524;48.312;7.938;2022-10-16T07:00:46;7.22;;;1.70;;
70157;SDS011;57524;48.312;7.938;2022-10-16T07:03:13;6.18;;;2.08;;
70157;SDS011;57524;48.312;7.938;2022-10-16T07:05:41;4.53;;;1.80;;
70157;SDS011;57524;48.312;7.938;2022-10-16T07:08:08;5.43;;;2.00;;
70157;SDS011;57524;48.312;7.938;2022-10-16T07:10:35;7.75;;;2.28;;
70157;SDS011;57524;48.312;7.938;2022-10-16T07:13:02;5.78;;;2.20;;
70157;SDS011;57524;48.312;7.938;2022-10-16T07:15:28;5.55;;;2.20;;
70157;SDS011;57524;48.312;7.938;2022-10-16T07:17:55;7.35;;;2.42;;
70157;SDS011;57524;48.312;7.938;2022-10-16T07:20:21;7.72;;;2.40;;
70157;SDS011;57524;48.312;7.938;2022-10-16T07:22:49;10.13;;;2.38;;
70157;SDS011;57524;48.312;7.938;2022-10-16T07:25:16;6.75;;;2.50;;
70157;SDS011;57524;48.312;7.938;2022-10-16T07:27:43;6.88;;;2.10;;
70157;SDS011;57524;48.312;7.938;2022-10-16T07:30:10;9.45;;;2.55;;
70157;SDS011;57524;48.312;7.938;2022-10-16T07:32:37;7.40;;;2.30;;
70157;SDS011;57524;48.312;7.938;2022-10-16T07:35:03;9.43;;;2.78;;
70157;SDS011;57524;48.312;7.938;2022-10-16T07:37:31;7.93;;;3.38;;
70157;SDS011;57524;48.312;7.938;2022-10-16T07:39:58;10.40;;;3.40;;
70157;SDS011;57524;48.312;7.938;2022-10-16T07:42:26;8.55;;;3.75;;
70157;SDS011;57524;48.312;7.938;2022-10-16T07:44:53;8.17;;;3.17;;
70157;SDS011;57524;48.312;7.938;2022-10-16T07:47:19;8.57;;;4.10;;
70157;SDS011;57524;48.312;7.938;2022-10-16T07:49:46;10.10;;;4.70;;
70157;SDS011;57524;48.312;7.938;2022-10-16T07:52:13;7.70;;;4.72;;
70157;SDS011;57524;48.312;7.938;2022-10-16T07:54:40;10.98;;;3.22;;
70157;SDS011;57524;48.312;7.938;2022-10-16T07:57:08;9.07;;;3.58;;
70157;SDS011;57524;48.312;7.938;2022-10-16T07:59:34;9.05;;;3.55;;
70157;SDS011;57524;48.312;7.938;2022-10-16T08:02:01;6.68;;;3.30;;
70157;SDS011;57524;48.312;7.938;2022-10-16T08:04:27;9.13;;;4.18;;
70157;SDS011;57524;48.312;7.938;2022-10-16T08:06:54;10.35;;;4.35;;
70157;SDS011;57524;48.312;7.938;2022-10-16T08:09:20;9.27;;;4.22;;
70157;SDS011;57524;48.312;7.938;2022-10-16T08:11:47;13.90;;;6.57;;
70157;SDS011;57524;48.312;7.938;2022-10-16T08:14:15;18.27;;;7.78;;
70157;SDS011;57524;48.312;7.938;2022-10-16T08:16:42;12.65;;;5.95;;
70157;SDS011;57524;48.312;7.938;2022-10-16T08:19:08;12.55;;;4.47;;
70157;SDS011;57524;48.312;7.938;2022-10-16T08:21:35;7.95;;;3.60;;
70157;SDS011;57524;48.312;7.938;2022-10-16T08:24:01;10.00;;;3.17;;
70157;SDS011;57524;48.312;7.938;2022-10-16T08:26:29;6.03;;;2.83;;
70157;SDS011;57524;48.312;7.938;2022-10-16T08:28:55;6.13;;;2.70;;
70157;SDS011;57524;48.312;7.938;2022-10-16T08:31:23;7.63;;;2.50;;
70157;SDS011;57524;48.312;7.938;2022-10-16T08:33:51;5.78;;;2.38;;
70157;SDS011;57524;48.312;7.938;2022-10-16T08:36:17;5.75;;;2.55;;
70157;SDS011;57524;48.312;7.938;2022-10-16T08:38:46;6.32;;;2.60;;
70157;SDS011;57524;48.312;7.938;2022-10-16T08:41:18;6.43;;;2.47;;
70157;SDS011;57524;48.312;7.938;2022-10-16T08:44:19;5.45;;;2.25;;
70157;SDS011;57524;48.312;7.938;2022-10-16T08:47:01;7.53;;;2.23;;
70157;SDS011;57524;48.312;7.938;2022-10-16T08:49:34;5.95;;;2.13;;
70157;SDS011;57524;48.312;7.938;2022-10-16T08:52:02;5.28;;;2.15;;
70157;SDS011;57524;48.312;7.938;2022-10-16T08:54:29;6.18;;;2.60;;
70157;SDS011;57524;48.312;7.938;2022-10-16T08:57:07;7.85;;;3.25;;
70157;SDS011;57524;48.312;7.938;2022-10-16T08:59:37;6.03;;;2.55;;
70157;SDS011;57524;48.312;7.938;2022-10-16T09:02:11;6.47;;;2.65;;
70157;SDS011;57524;48.312;7.938;2022-10-16T09:04:51;7.65;;;2.70;;
70157;SDS011;57524;48.312;7.938;2022-10-16T09:07:26;7.15;;;2.80;;
70157;SDS011;57524;48.312;7.938;2022-10-16T09:10:06;5.63;;;2.22;;
70157;SDS011;57524;48.312;7.938;2022-10-16T09:12:42;7.97;;;4.07;;
70157;SDS011;57524;48.312;7.938;2022-10-16T09:15:17;9.02;;;3.28;;
70157;SDS011;57524;48.312;7.938;2022-10-16T09:17:54;10.30;;;2.58;;
70157;SDS011;57524;48.312;7.938;2022-10-16T09:20:31;5.63;;;2.20;;
70157;SDS011;57524;48.312;7.938;2022-10-16T09:23:13;8.18;;;2.38;;
70157;SDS011;57524;48.312;7.938;2022-10-16T09:25:43;5.63;;;2.10;;
70157;SDS011;57524;48.312;7.938;2022-10-16T09:28:12;7.70;;;2.00;;
70157;SDS011;57524;48.312;7.938;2022-10-16T09:30:39;5.25;;;1.90;;
70157;SDS011;57524;48.312;7.938;2022-10-16T09:33:07;7.22;;;2.13;;
70157;SDS011;57524;48.312;7.938;2022-10-16T09:35:36;6.50;;;1.90;;
70157;SDS011;57524;48.312;7.938;2022-10-16T09:38:04;5.93;;;2.00;;
70157;SDS011;57524;48.312;7.938;2022-10-16T09:40:32;5.43;;;2.10;;
70157;SDS011;57524;48.312;7.938;2022-10-16T09:43:07;5.07;;;2.05;;
70157;SDS011;57524;48.312;7.938;2022-10-16T09:45:53;7.28;;;2.40;;
70157;SDS011;57524;48.312;7.938;2022-10-16T09:48:22;8.57;;;2.60;;
70157;SDS011;57524;48.312;7.938;2022-10-16T09:50:56;6.82;;;2.10;;
70157;SDS011;57524;48.312;7.938;2022-10-16T09:53:23;5.25;;;2.42;;
70157;SDS011;57524;48.312;7.938;2022-10-16T09:56:02;5.15;;;2.22;;
70157;SDS011;57524;48.312;7.938;2022-10-16T09:58:31;5.32;;;2.10;;
70157;SDS011;57524;48.312;7.938;2022-10-16T10:00:59;5.88;;;2.22;;
70157;SDS011;57524;48.312;7.938;2022-10-16T10:03:37;5.18;;;1.95;;
70157;SDS011;57524;48.312;7.938;2022-10-16T10:06:13;4.75;;;2.00;;
70157;SDS011;57524;48.312;7.938;2022-10-16T10:08:56;5.43;;;2.85;;
70157;SDS011;57524;48.312;7.938;2022-10-16T10:11:37;7.93;;;2.28;;
70157;SDS011;57524;48.312;7.938;2022-10-16T10:14:22;9.07;;;2.20;;
70157;SDS011;57524;48.312;7.938;2022-10-16T10:17:14;5.28;;;2.00;;
70157;SDS011;57524;48.312;7.938;2022-10-16T10:19:48;6.10;;;2.10;;
70157;SDS011;57524;48.312;7.938;2022-10-16T10:22:25;4.53;;;1.95;;
70157;SDS011;57524;48.312;7.938;2022-10-16T10:25:07;5.10;;;2.10;;
70157;SDS011;57524;48.312;7.938;2022-10-16T10:27:45;3.92;;;2.00;;
70157;SDS011;57524;48.312;7.938;2022-10-16T10:30:19;5.22;;;1.85;;
70157;SDS011;57524;48.312;7.938;2022-10-16T10:32:54;6.55;;;1.98;;
70157;SDS011;57524;48.312;7.938;2022-10-16T10:35:36;6.00;;;1.70;;
70157;SDS011;57524;48.312;7.938;2022-10-16T10:38:13;6.38;;;1.92;;
70157;SDS011;57524;48.312;7.938;2022-10-16T10:40:51;5.47;;;2.00;;
70157;SDS011;57524;48.312;7.938;2022-10-16T10:43:29;4.35;;;1.60;;
70157;SDS011;57524;48.312;7.938;2022-10-16T10:46:08;7.30;;;1.88;;
70157;SDS011;57524;48.312;7.938;2022-10-16T10:48:47;5.35;;;1.90;;
70157;SDS011;57524;48.312;7.938;2022-10-16T10:51:53;6.40;;;1.50;;
70157;SDS011;57524;48.312;7.938;2022-10-16T10:54:30;4.97;;;1.70;;
70157;SDS011;57524;48.312;7.938;2022-10-16T10:57:07;5.80;;;1.73;;
70157;SDS011;57524;48.312;7.938;2022-10-16T10:59:47;5.95;;;2.08;;
70157;SDS011;57524;48.312;7.938;2022-10-16T11:02:23;6.43;;;2.50;;
70157;SDS011;57524;48.312;7.938;2022-10-16T11:05:03;5.65;;;2.40;;
70157;SDS011;57524;48.312;7.938;2022-10-16T11:07:59;4.38;;;1.90;;
70157;SDS011;57524;48.312;7.938;2022-10-16T11:10:28;5.03;;;2.17;;
70157;SDS011;57524;48.312;7.938;2022-10-16T11:13:03;5.22;;;2.20;;
70157;SDS011;57524;48.312;7.938;2022-10-16T11:15:45;6.38;;;2.25;;
70157;SDS011;57524;48.312;7.938;2022-10-16T11:18:18;4.78;;;1.80;;
70157;SDS011;57524;48.312;7.938;2022-10-16T11:20:49;7.50;;;1.90;;
70157;SDS011;57524;48.312;7.938;2022-10-16T11:23:23;5.80;;;2.05;;
70157;SDS011;57524;48.312;7.938;2022-10-16T11:25:54;6.10;;;1.73;;
70157;SDS011;57524;48.312;7.938;2022-10-16T11:28:26;5.70;;;1.83;;
70157;SDS011;57524;48.312;7.938;2022-10-16T11:30:59;5.40;;;1.50;;
70157;SDS011;57524;48.312;7.938;2022-10-16T11:33:30;3.33;;;1.33;;
70157;SDS011;57524;48.312;7.938;2022-10-16T11:36:05;5.45;;;1.60;;
70157;SDS011;57524;48.312;7.938;2022-10-16T11:38:39;4.90;;;1.50;;
70157;SDS011;57524;48.312;7.938;2022-10-16T11:41:11;5.00;;;1.52;;
70157;SDS011;57524;48.312;7.938;2022-10-16T11:43:45;5.25;;;1.60;;
70157;SDS011;57524;48.312;7.938;2022-10-16T11:46:19;6.28;;;1.67;;
70157;SDS011;57524;48.312;7.938;2022-10-16T11:48:51;5.38;;;1.60;;
70157;SDS011;57524;48.312;7.938;2022-10-16T11:51:25;5.57;;;1.58;;
70157;SDS011;57524;48.312;7.938;2022-10-16T11:54:02;3.45;;;1.42;;
70157;SDS011;57524;48.312;7.938;2022-10-16T11:56:35;3.63;;;1.50;;
70157;SDS011;57524;48.312;7.938;2022-10-16T11:59:07;6.18;;;1.40;;
70157;SDS011;57524;48.312;7.938;2022-10-16T12:01:42;8.25;;;1.67;;
70157;SDS011;57524;48.312;7.938;2022-10-16T12:04:18;4.03;;;1.65;;
70157;SDS011;57524;48.312;7.938;2022-10-16T12:06:52;5.43;;;1.50;;
70157;SDS011;57524;48.312;7.938;2022-10-16T12:09:27;4.72;;;1.60;;
70157;SDS011;57524;48.312;7.938;2022-10-16T12:11:55;5.75;;;1.80;;
70157;SDS011;57524;48.312;7.938;2022-10-16T12:14:35;4.35;;;1.60;;
70157;SDS011;57524;48.312;7.938;2022-10-16T12:20:00;5.38;;;1.70;;
70157;SDS011;57524;48.312;7.938;2022-10-16T12:22:40;6.70;;;1.73;;
70157;SDS011;57524;48.312;7.938;2022-10-16T12:25:20;4.97;;;1.67;;
70157;SDS011;57524;48.312;7.938;2022-10-16T12:27:53;4.93;;;1.60;;
70157;SDS011;57524;48.312;7.938;2022-10-16T12:30:21;6.75;;;1.70;;
70157;SDS011;57524;48.312;7.938;2022-10-16T12:32:53;4.65;;;1.60;;
70157;SDS011;57524;48.312;7.938;2022-10-16T12:35:22;5.18;;;1.60;;
70157;SDS011;57524;48.312;7.938;2022-10-16T12:37:51;4.55;;;1.90;;
70157;SDS011;57524;48.312;7.938;2022-10-16T12:40:27;4.18;;;1.60;;
70157;SDS011;57524;48.312;7.938;2022-10-16T12:42:56;5.03;;;1.70;;
70157;SDS011;57524;48.312;7.938;2022-10-16T12:45:27;5.68;;;1.70;;
70157;SDS011;57524;48.312;7.938;2022-10-16T12:47:56;4.97;;;2.00;;
70157;SDS011;57524;48.312;7.938;2022-10-16T12:50:25;4.38;;;1.83;;
70157;SDS011;57524;48.312;7.938;2022-10-16T12:52:55;7.13;;;2.00;;
70157;SDS011;57524;48.312;7.938;2022-10-16T12:55:22;4.88;;;1.85;;
70157;SDS011;57524;48.312;7.938;2022-10-16T12:57:57;5.40;;;2.00;;
70157;SDS011;57524;48.312;7.938;2022-10-16T13:00:42;5.82;;;2.00;;
70157;SDS011;57524;48.312;7.938;2022-10-16T13:03:23;4.40;;;1.80;;
70157;SDS011;57524;48.312;7.938;2022-10-16T13:06:07;4.10;;;1.60;;
70157;SDS011;57524;48.312;7.938;2022-10-16T13:08:44;4.30;;;1.70;;
70157;SDS011;57524;48.312;7.938;2022-10-16T13:11:24;5.10;;;1.60;;
70157;SDS011;57524;48.312;7.938;2022-10-16T13:14:16;4.63;;;1.90;;
70157;SDS011;57524;48.312;7.938;2022-10-16T13:17:00;8.55;;;1.65;;
70157;SDS011;57524;48.312;7.938;2022-10-16T13:19:35;6.20;;;2.00;;
70157;SDS011;57524;48.312;7.938;2022-10-16T13:22:11;7.70;;;1.80;;
70157;SDS011;57524;48.312;7.938;2022-10-16T13:24:54;4.38;;;1.65;;
70157;SDS011;57524;48.312;7.938;2022-10-16T13:27:33;6.15;;;1.77;;
70157;SDS011;57524;48.312;7.938;2022-10-16T13:30:10;4.88;;;1.80;;
70157;SDS011;57524;48.312;7.938;2022-10-16T13:32:39;4.22;;;1.77;;
70157;SDS011;57524;48.312;7.938;2022-10-16T13:35:20;4.75;;;1.58;;
70157;SDS011;57524;48.312;7.938;2022-10-16T13:37:49;5.03;;;1.63;;
70157;SDS011;57524;48.312;7.938;2022-10-16T13:40:19;5.22;;;1.63;;
70157;SDS011;57524;48.312;7.938;2022-10-16T13:42:47;4.85;;;1.80;;
70157;SDS011;57524;48.312;7.938;2022-10-16T13:45:20;3.60;;;1.58;;
70157;SDS011;57524;48.312;7.938;2022-10-16T13:47:48;4.53;;;1.50;;
70157;SDS011;57524;48.312;7.938;2022-10-16T13:50:15;6.45;;;1.60;;
70157;SDS011;57524;48.312;7.938;2022-10-16T13:52:43;4.72;;;1.70;;
70157;SDS011;57524;48.312;7.938;2022-10-16T13:55:10;4.93;;;1.60;;
70157;SDS011;57524;48.312;7.938;2022-10-16T13:57:38;4.20;;;1.50;;
70157;SDS011;57524;48.312;7.938;2022-10-16T14:00:17;4.87;;;1.50;;
70157;SDS011;57524;48.312;7.938;2022-10-16T14:02:49;6.10;;;1.65;;
70157;SDS011;57524;48.312;7.938;2022-10-16T14:05:19;4.32;;;1.40;;
70157;SDS011;57524;48.312;7.938;2022-10-16T14:07:47;5.97;;;1.58;;
70157;SDS011;57524;48.312;7.938;2022-10-16T14:10:20;4.53;;;1.60;;
70157;SDS011;57524;48.312;7.938;2022-10-16T14:12:56;4.75;;;1.58;;
70157;SDS011;57524;48.312;7.938;2022-10-16T14:15:24;6.90;;;1.90;;
70157;SDS011;57524;48.312;7.938;2022-10-16T14:17:52;5.75;;;1.75;;
70157;SDS011;57524;48.312;7.938;2022-10-16T14:20:20;5.10;;;1.88;;
70157;SDS011;57524;48.312;7.938;2022-10-16T14:22:58;7.93;;;1.95;;
70157;SDS011;57524;48.312;7.938;2022-10-16T14:25:27;7.22;;;2.30;;
70157;SDS011;57524;48.312;7.938;2022-10-16T14:27:59;7.10;;;2.00;;
70157;SDS011;57524;48.312;7.938;2022-10-16T14:30:27;6.97;;;2.10;;
70157;SDS011;57524;48.312;7.938;2022-10-16T14:32:57;6.00;;;1.90;;
70157;SDS011;57524;48.312;7.938;2022-10-16T14:35:26;7.65;;;1.73;;
70157;SDS011;57524;48.312;7.938;2022-10-16T14:37:55;5.68;;;2.05;;
70157;SDS011;57524;48.312;7.938;2022-10-16T14:40:24;6.25;;;1.77;;
70157;SDS011;57524;48.312;7.938;2022-10-16T14:42:52;8.70;;;2.13;;
70157;SDS011;57524;48.312;7.938;2022-10-16T14:45:20;6.90;;;2.00;;
70157;SDS011;57524;48.312;7.938;2022-10-16T14:47:49;4.82;;;1.70;;
70157;SDS011;57524;48.312;7.938;2022-10-16T14:50:19;6.67;;;1.80;;
70157;SDS011;57524;48.312;7.938;2022-10-16T14:52:46;7.43;;;1.95;;
70157;SDS011;57524;48.312;7.938;2022-10-16T14:55:13;5.25;;;1.60;;
70157;SDS011;57524;48.312;7.938;2022-10-16T14:57:40;5.78;;;1.50;;
70157;SDS011;57524;48.312;7.938;2022-10-16T15:00:10;7.35;;;1.70;;
70157;SDS011;57524;48.312;7.938;2022-10-16T15:02:42;5.55;;;1.55;;
70157;SDS011;57524;48.312;7.938;2022-10-16T15:05:14;6.68;;;1.83;;
70157;SDS011;57524;48.312;7.938;2022-10-16T15:07:44;5.85;;;1.80;;
70157;SDS011;57524;48.312;7.938;2022-10-16T15:10:12;9.80;;;2.00;;